createdAt,value
2023-05-05T00:02:07.768Z,10.96
2023-05-05T00:04:37.946Z,10.91
2023-05-05T00:07:10.730Z,10.86
2023-05-05T00:09:40.827Z,10.88
2023-05-05T00:12:11.343Z,10.84
2023-05-05T00:14:41.455Z,10.76
2023-05-05T00:17:11.795Z,10.74
2023-05-05T00:19:42.054Z,10.71
2023-05-05T00:22:14.920Z,10.72
2023-05-05T00:24:45.053Z,10.78
2023-05-05T00:27:15.183Z,10.70
2023-05-05T00:29:45.330Z,10.63
2023-05-05T00:32:18.765Z,10.52
2023-05-05T00:34:52.390Z,10.51
2023-05-05T00:37:30.922Z,10.52
2023-05-05T00:40:02.505Z,10.44
2023-05-05T00:42:42.679Z,10.39
2023-05-05T00:45:16.080Z,10.42
2023-05-05T00:47:49.336Z,10.34
2023-05-05T00:50:26.707Z,10.29
2023-05-05T00:53:02.277Z,10.36
2023-05-05T00:55:33.347Z,10.32
2023-05-05T00:58:05.922Z,10.24
2023-05-05T01:00:37.537Z,10.23
2023-05-05T01:03:08.345Z,10.23
2023-05-05T01:05:45.654Z,10.33
2023-05-05T01:08:32.570Z,10.28
2023-05-05T01:11:10.920Z,10.18
2023-05-05T01:13:53.160Z,10.18
2023-05-05T01:16:28.947Z,10.19
2023-05-05T01:19:12.692Z,10.07
2023-05-05T01:21:49.972Z,10.01
2023-05-05T01:24:45.818Z,10.02
2023-05-05T01:27:34.426Z,9.88
2023-05-05T01:30:13.557Z,9.82
2023-05-05T01:32:51.013Z,9.80
2023-05-05T01:35:24.258Z,9.78
2023-05-05T01:38:02.230Z,9.74
2023-05-05T01:40:37.025Z,9.74
2023-05-05T01:43:09.727Z,9.80
2023-05-05T01:45:45.267Z,9.76
2023-05-05T01:48:20.895Z,9.72
2023-05-05T01:50:53.126Z,9.66
2023-05-05T01:53:26.304Z,9.68
2023-05-05T01:55:59.544Z,9.64
2023-05-05T01:58:32.703Z,9.74
2023-05-05T02:01:04.852Z,9.64
2023-05-05T02:03:40.793Z,9.69
2023-05-05T02:06:13.263Z,9.63
2023-05-05T02:08:45.197Z,9.67
2023-05-05T02:11:16.014Z,9.63
2023-05-05T02:13:47.952Z,9.63
2023-05-05T02:16:20.830Z,9.64
2023-05-05T02:18:54.806Z,9.64
2023-05-05T02:21:25.093Z,9.59
2023-05-05T02:23:56.146Z,9.57
2023-05-05T02:26:27.737Z,9.59
2023-05-05T02:29:07.582Z,9.53
2023-05-05T02:31:42.479Z,9.54
2023-05-05T02:34:19.448Z,9.50
2023-05-05T02:36:54.649Z,9.49
2023-05-05T02:39:33.785Z,9.47
2023-05-05T02:42:11.746Z,9.48
2023-05-05T02:44:45.623Z,9.47
2023-05-05T02:47:16.895Z,9.44
2023-05-05T02:49:49.970Z,9.41
2023-05-05T02:52:20.145Z,9.38
2023-05-05T02:54:51.375Z,9.40
2023-05-05T02:57:28.095Z,9.40
2023-05-05T03:00:09.846Z,9.38
2023-05-05T03:02:47.665Z,9.37
2023-05-05T03:05:25.760Z,9.37
2023-05-05T03:07:59.397Z,9.37
2023-05-05T03:10:34.088Z,9.36
2023-05-05T03:13:07.462Z,9.32
2023-05-05T03:15:49.323Z,9.28
2023-05-05T03:18:25.562Z,9.28
2023-05-05T03:21:10.919Z,9.30
2023-05-05T03:23:44.262Z,9.32
2023-05-05T03:26:21.684Z,9.32
2023-05-05T03:28:51.807Z,9.38
2023-05-05T03:31:28.747Z,9.38
2023-05-05T03:34:02.221Z,9.42
2023-05-05T03:36:42.244Z,9.43
2023-05-05T03:39:15.413Z,9.47
2023-05-05T03:41:45.893Z,9.52
2023-05-05T03:44:17.985Z,9.57
2023-05-05T03:46:48.075Z,9.64
2023-05-05T03:49:19.377Z,9.71
2023-05-05T03:51:54.135Z,9.75
2023-05-05T03:54:24.481Z,9.79
2023-05-05T03:56:56.343Z,9.85
2023-05-05T03:59:26.604Z,9.87
2023-05-05T04:01:57.054Z,9.90
2023-05-05T04:04:27.683Z,9.93
2023-05-05T04:07:00.608Z,9.96
2023-05-05T04:09:30.902Z,9.96
2023-05-05T04:12:01.303Z,9.99
2023-05-05T04:14:31.676Z,10.03
2023-05-05T04:17:01.866Z,10.02
2023-05-05T04:19:34.670Z,10.04
2023-05-05T04:22:09.274Z,10.08
2023-05-05T04:24:39.523Z,10.23
2023-05-05T04:27:09.844Z,10.18
2023-05-05T04:29:40.130Z,10.20
2023-05-05T04:32:10.955Z,10.23
2023-05-05T04:34:41.635Z,10.31
2023-05-05T04:37:14.696Z,10.40
2023-05-05T04:39:44.876Z,10.43
2023-05-05T04:42:15.088Z,10.46
2023-05-05T04:44:45.299Z,10.55
2023-05-05T04:47:15.497Z,10.64
2023-05-05T04:49:46.480Z,10.65
2023-05-05T04:52:19.286Z,10.82
2023-05-05T04:54:49.619Z,10.87
2023-05-05T04:57:19.804Z,10.96
2023-05-05T04:59:49.999Z,11.09
2023-05-05T05:02:20.893Z,11.21
2023-05-05T05:04:52.901Z,11.48
2023-05-05T05:07:26.216Z,11.60
2023-05-05T05:09:56.540Z,11.84
2023-05-05T05:12:28.556Z,11.97
2023-05-05T05:14:58.779Z,12.00
2023-05-05T05:17:30.288Z,12.10
2023-05-05T05:20:05.124Z,12.18
2023-05-05T05:22:39.685Z,12.32
2023-05-05T05:25:14.497Z,12.55
2023-05-05T05:27:46.801Z,12.52
2023-05-05T05:30:21.197Z,12.52
2023-05-05T05:32:51.483Z,12.61
2023-05-05T05:35:21.807Z,12.57
2023-05-05T05:37:54.803Z,12.84
2023-05-05T05:40:25.040Z,12.80
2023-05-05T05:42:55.473Z,13.09
2023-05-05T05:45:28.485Z,13.22
2023-05-05T05:47:58.945Z,13.34
2023-05-05T05:50:29.163Z,13.65
2023-05-05T05:53:04.012Z,13.62
2023-05-05T05:55:34.644Z,14.05
2023-05-05T05:58:05.517Z,14.11
2023-05-05T06:00:36.076Z,14.18
2023-05-05T06:03:10.674Z,14.57
2023-05-05T06:05:42.347Z,14.47
2023-05-05T06:08:15.196Z,14.35
2023-05-05T06:10:50.365Z,14.64
2023-05-05T06:13:22.681Z,14.93
2023-05-05T06:15:55.430Z,15.09
2023-05-05T06:18:26.349Z,15.15
2023-05-05T06:20:56.641Z,14.59
2023-05-05T06:23:33.149Z,14.69
2023-05-05T06:26:07.483Z,14.98
2023-05-05T06:28:37.748Z,14.87
2023-05-05T06:31:08.139Z,14.61
2023-05-05T06:33:38.396Z,14.95
2023-05-05T06:36:09.104Z,15.08
2023-05-05T06:38:41.966Z,14.94
2023-05-05T06:41:12.182Z,14.78
2023-05-05T06:43:43.271Z,15.15
2023-05-05T06:46:15.580Z,15.20
2023-05-05T06:48:45.788Z,15.56
2023-05-05T06:51:15.904Z,15.41
2023-05-05T06:53:49.797Z,15.87
2023-05-05T06:56:20.218Z,16.00
2023-05-05T06:58:50.725Z,15.93
2023-05-05T07:01:21.045Z,16.33
2023-05-05T07:03:51.295Z,16.54
2023-05-05T07:06:21.515Z,16.13
2023-05-05T07:08:54.333Z,16.16
2023-05-05T07:11:24.522Z,16.48
2023-05-05T07:13:54.679Z,16.54
2023-05-05T07:16:28.070Z,17.11
2023-05-05T07:18:58.417Z,17.18
2023-05-05T07:21:28.555Z,17.26
2023-05-05T07:24:01.373Z,17.82
2023-05-05T07:26:31.712Z,16.99
2023-05-05T07:29:01.863Z,17.14
2023-05-05T07:31:32.013Z,17.46
2023-05-05T07:34:02.195Z,17.26
2023-05-05T07:36:32.470Z,17.70
2023-05-05T07:39:05.365Z,18.06
2023-05-05T07:41:36.112Z,17.54
2023-05-05T07:44:06.302Z,18.04
2023-05-05T07:46:36.733Z,17.98
2023-05-05T07:49:06.993Z,17.75
2023-05-05T07:51:37.182Z,18.16
2023-05-05T07:54:10.030Z,18.37
2023-05-05T07:56:40.161Z,18.40
2023-05-05T07:59:10.347Z,18.63
2023-05-05T08:01:40.540Z,19.34
2023-05-05T08:04:10.886Z,19.09
2023-05-05T08:06:41.014Z,19.19
2023-05-05T08:09:14.030Z,19.23
2023-05-05T08:11:44.236Z,19.07
2023-05-05T08:14:15.395Z,19.26
2023-05-05T08:16:45.599Z,19.12
2023-05-05T08:19:27.539Z,18.89
2023-05-05T08:22:00.565Z,19.57
2023-05-05T08:24:34.062Z,19.42
2023-05-05T08:27:04.471Z,19.25
2023-05-05T08:29:34.702Z,19.64
2023-05-05T08:32:04.843Z,20.24
2023-05-05T08:34:34.914Z,20.37
2023-05-05T08:37:06.364Z,20.42
2023-05-05T08:39:39.412Z,20.06
2023-05-05T08:42:09.718Z,20.24
2023-05-05T08:44:39.991Z,20.34
2023-05-05T08:47:13.751Z,20.65
2023-05-05T08:49:49.748Z,20.14
2023-05-05T08:52:24.409Z,18.93
2023-05-05T08:55:01.089Z,19.80
2023-05-05T08:57:39.275Z,19.88
2023-05-05T09:00:11.607Z,20.23
2023-05-05T09:02:43.994Z,20.04
2023-05-05T09:05:14.266Z,20.68
2023-05-05T09:07:44.858Z,21.18
2023-05-05T09:10:17.903Z,21.22
2023-05-05T09:12:49.759Z,21.72
2023-05-05T09:15:20.256Z,22.04
2023-05-05T09:17:50.550Z,21.51
2023-05-05T09:20:20.784Z,21.82
2023-05-05T09:22:51.132Z,21.91
2023-05-05T09:25:23.916Z,22.05
2023-05-05T09:27:57.849Z,22.27
2023-05-05T09:30:29.067Z,22.31
2023-05-05T09:33:02.447Z,22.41
2023-05-05T09:35:32.299Z,22.82
2023-05-05T09:38:16.575Z,21.86
2023-05-05T09:40:54.086Z,21.07
2023-05-05T09:43:25.538Z,21.72
2023-05-05T09:46:09.225Z,22.03
2023-05-05T09:48:41.848Z,21.93
2023-05-05T09:51:11.973Z,22.37
2023-05-05T09:53:44.143Z,21.89
2023-05-05T09:56:16.924Z,21.87
2023-05-05T09:58:47.164Z,21.76
2023-05-05T10:01:25.786Z,21.60
2023-05-05T10:03:56.206Z,21.11
2023-05-05T10:06:42.965Z,20.77
2023-05-05T10:09:13.169Z,21.08
2023-05-05T10:11:49.151Z,21.27
2023-05-05T10:14:22.652Z,20.77
2023-05-05T10:16:54.215Z,21.04
2023-05-05T10:19:25.715Z,21.63
2023-05-05T10:22:02.555Z,22.21
2023-05-05T10:24:41.754Z,22.31
2023-05-05T10:27:20.698Z,22.19
2023-05-05T10:29:58.129Z,22.90
2023-05-05T10:35:05.548Z,23.36
2023-05-05T10:37:36.943Z,23.37
2023-05-05T10:40:08.860Z,23.81
2023-05-05T10:42:42.703Z,22.97
2023-05-05T10:45:13.377Z,22.77
2023-05-05T10:47:44.611Z,21.57
2023-05-05T10:50:24.349Z,21.68
2023-05-05T10:53:06.585Z,22.59
2023-05-05T10:55:43.073Z,22.12
2023-05-05T10:58:43.712Z,22.67
2023-05-05T11:01:33.441Z,23.03
2023-05-05T11:04:22.342Z,23.02
2023-05-05T11:07:22.359Z,22.59
2023-05-05T11:10:02.380Z,22.62
2023-05-05T11:12:33.372Z,23.29
2023-05-05T11:15:35.769Z,23.27
2023-05-05T11:18:09.527Z,22.51
2023-05-05T11:21:15.866Z,22.94
2023-05-05T11:23:48.051Z,21.90
2023-05-05T11:26:19.151Z,22.38
2023-05-05T11:29:03.757Z,22.13
2023-05-05T11:31:34.931Z,22.77
2023-05-05T11:34:34.603Z,21.86
2023-05-05T11:37:07.693Z,22.12
2023-05-05T11:39:49.327Z,21.95
2023-05-05T11:42:27.356Z,21.75
2023-05-05T11:44:57.824Z,22.03
2023-05-05T11:47:32.598Z,22.50
2023-05-05T11:50:20.261Z,21.48
2023-05-05T11:52:51.032Z,22.07
2023-05-05T11:55:27.935Z,21.92
2023-05-05T11:57:58.137Z,22.44
2023-05-05T12:00:37.590Z,22.46
2023-05-05T12:03:09.802Z,22.11
2023-05-05T12:05:43.470Z,22.54
2023-05-05T12:08:15.027Z,22.79
2023-05-05T12:10:45.366Z,23.13
2023-05-05T12:13:21.699Z,22.83
2023-05-05T12:15:52.179Z,22.18
2023-05-05T12:18:22.588Z,22.66
2023-05-05T12:20:55.366Z,23.10
2023-05-05T12:23:27.581Z,23.37
2023-05-05T12:25:57.767Z,23.29
2023-05-05T12:28:27.900Z,23.28
2023-05-05T12:31:01.566Z,22.19
2023-05-05T12:33:31.937Z,22.44
2023-05-05T12:36:04.853Z,22.11
2023-05-05T12:38:34.991Z,22.25
2023-05-05T12:41:06.116Z,22.69
2023-05-05T12:43:38.945Z,22.67
2023-05-05T12:46:11.356Z,23.28
2023-05-05T12:48:47.919Z,23.32
2023-05-05T12:51:23.595Z,23.42
2023-05-05T12:54:06.424Z,22.84
2023-05-05T12:56:38.566Z,22.06
2023-05-05T12:59:10.355Z,22.02
2023-05-05T13:01:56.489Z,21.99
2023-05-05T13:04:28.086Z,22.52
2023-05-05T13:07:16.052Z,22.87
2023-05-05T13:09:46.346Z,23.03
2023-05-05T13:12:16.742Z,22.31
2023-05-05T13:14:47.043Z,22.95
2023-05-05T13:17:17.945Z,22.30
2023-05-05T13:19:48.985Z,23.04
2023-05-05T13:22:22.282Z,23.42
2023-05-05T13:25:07.289Z,23.21
2023-05-05T13:27:38.062Z,22.86
2023-05-05T13:30:09.520Z,23.05
2023-05-05T13:32:39.838Z,22.56
2023-05-05T13:35:13.191Z,22.73
2023-05-05T13:37:50.367Z,22.94
2023-05-05T13:40:20.487Z,22.63
2023-05-05T13:42:50.622Z,22.56
2023-05-05T13:45:20.908Z,22.70
2023-05-05T13:47:51.352Z,23.17
2023-05-05T13:50:21.725Z,23.26
2023-05-05T13:52:54.459Z,23.10
2023-05-05T13:55:24.625Z,23.13
2023-05-05T13:57:54.709Z,22.98
2023-05-05T14:00:25.214Z,23.01
2023-05-05T14:02:55.769Z,22.80
2023-05-05T14:05:26.261Z,22.30
2023-05-05T14:07:59.874Z,22.26
2023-05-05T14:10:31.272Z,22.58
2023-05-05T14:13:01.362Z,22.49
2023-05-05T14:15:31.788Z,22.29
2023-05-05T14:18:02.486Z,22.93
2023-05-05T14:20:32.864Z,23.36
2023-05-05T14:23:05.648Z,22.34
2023-05-05T14:25:36.083Z,22.29
2023-05-05T14:28:06.450Z,22.63
2023-05-05T14:30:36.848Z,22.85
2023-05-05T14:33:07.165Z,22.86
2023-05-05T14:35:39.721Z,22.75
2023-05-05T14:38:12.531Z,22.28
2023-05-05T14:40:42.630Z,22.50
2023-05-05T14:43:12.748Z,22.43
2023-05-05T14:45:44.470Z,22.42
2023-05-05T14:48:14.713Z,22.59
2023-05-05T14:50:46.533Z,22.47
2023-05-05T14:53:19.603Z,22.66
2023-05-05T14:55:49.751Z,22.85
2023-05-05T14:58:22.620Z,22.45
2023-05-05T15:00:53.216Z,21.69
2023-05-05T15:03:23.620Z,22.19
2023-05-05T15:05:53.985Z,22.53
2023-05-05T15:08:26.788Z,22.67
2023-05-05T15:10:56.939Z,22.43
2023-05-05T15:13:27.055Z,22.64
2023-05-05T15:15:57.279Z,22.43
2023-05-05T15:18:27.605Z,22.33
2023-05-05T15:20:57.669Z,22.30
2023-05-05T15:23:30.381Z,22.53
2023-05-05T15:26:00.516Z,22.38
2023-05-05T15:28:30.902Z,22.30
2023-05-05T15:31:02.562Z,22.28
2023-05-05T15:33:33.797Z,22.29
2023-05-05T15:36:04.024Z,22.28
2023-05-05T15:38:36.843Z,22.39
2023-05-05T15:41:09.483Z,22.19
2023-05-05T15:43:39.618Z,22.05
2023-05-05T15:46:09.816Z,21.66
2023-05-05T15:48:40.020Z,21.47
2023-05-05T15:51:10.152Z,21.56
2023-05-05T15:53:42.901Z,21.58
2023-05-05T15:56:13.421Z,21.63
2023-05-05T15:58:43.582Z,21.71
2023-05-05T16:01:15.779Z,21.61
2023-05-05T16:03:46.199Z,21.49
2023-05-05T16:06:16.347Z,21.47
2023-05-05T16:08:51.866Z,21.45
2023-05-05T16:11:23.750Z,21.41
2023-05-05T16:13:53.903Z,21.38
2023-05-05T16:16:24.222Z,21.42
2023-05-05T16:18:54.371Z,21.59
2023-05-05T16:21:24.712Z,21.42
2023-05-05T16:23:57.502Z,21.44
2023-05-05T16:26:27.646Z,21.31
2023-05-05T16:28:57.781Z,21.13
2023-05-05T16:31:28.033Z,21.04
2023-05-05T16:33:58.241Z,21.01
2023-05-05T16:36:28.379Z,21.07
2023-05-05T16:39:01.108Z,21.03
2023-05-05T16:41:31.321Z,20.99
2023-05-05T16:44:16.930Z,20.75
2023-05-05T16:46:47.158Z,20.62
2023-05-05T16:49:17.290Z,20.66
2023-05-05T16:51:47.437Z,20.61
2023-05-05T16:54:17.541Z,20.60
2023-05-05T16:56:47.738Z,20.50
2023-05-05T16:59:22.072Z,20.50
2023-05-05T17:01:52.263Z,20.35
2023-05-05T17:04:22.451Z,20.34
2023-05-05T17:06:52.606Z,20.28
2023-05-05T17:09:25.042Z,20.21
2023-05-05T17:11:55.184Z,20.15
2023-05-05T17:14:28.025Z,20.13
2023-05-05T17:16:58.103Z,20.09
2023-05-05T17:19:28.205Z,19.99
2023-05-05T17:21:58.391Z,19.87
2023-05-05T17:24:28.550Z,19.72
2023-05-05T17:26:58.707Z,19.67
2023-05-05T17:29:31.507Z,19.57
2023-05-05T17:32:01.858Z,19.44
2023-05-05T17:34:32.201Z,19.22
2023-05-05T17:37:02.296Z,19.17
2023-05-05T17:39:32.487Z,18.94
2023-05-05T17:42:02.558Z,18.89
2023-05-05T17:44:35.331Z,18.72
2023-05-05T17:47:07.934Z,18.63
2023-05-05T17:49:38.155Z,18.44
2023-05-05T17:52:08.318Z,18.35
2023-05-05T17:54:38.504Z,18.23
2023-05-05T17:57:08.676Z,17.96
2023-05-05T17:59:41.640Z,17.84
2023-05-05T18:02:11.982Z,17.69
2023-05-05T18:04:42.743Z,17.60
2023-05-05T18:07:14.877Z,17.51
2023-05-05T18:09:45.112Z,17.24
2023-05-05T18:12:15.329Z,17.16
2023-05-05T18:14:48.059Z,17.13
2023-05-05T18:17:18.305Z,16.93
2023-05-05T18:19:50.066Z,16.92
2023-05-05T18:22:20.191Z,16.84
2023-05-05T18:24:50.375Z,16.78
2023-05-05T18:27:20.697Z,16.62
2023-05-05T18:29:53.397Z,16.45
2023-05-05T18:32:24.091Z,16.34
2023-05-05T18:34:54.297Z,16.27
2023-05-05T18:37:24.502Z,16.20
2023-05-05T18:39:54.650Z,16.11
2023-05-05T18:42:24.845Z,16.01
2023-05-05T18:44:57.790Z,15.86
2023-05-05T18:47:28.830Z,15.80
2023-05-05T18:49:58.991Z,15.73
2023-05-05T18:52:31.631Z,15.60
2023-05-05T18:55:02.232Z,15.46
2023-05-05T18:57:32.405Z,15.38
2023-05-05T19:00:05.155Z,15.45
2023-05-05T19:02:35.317Z,15.45
2023-05-05T19:05:05.561Z,15.28
2023-05-05T19:07:36.114Z,15.20
2023-05-05T19:10:07.641Z,15.21
2023-05-05T19:12:37.933Z,15.24
2023-05-05T19:15:13.792Z,15.16
2023-05-05T19:17:43.982Z,15.12
2023-05-05T19:20:14.821Z,15.06
2023-05-05T19:22:44.970Z,14.96
2023-05-05T19:25:15.677Z,14.90
2023-05-05T19:27:45.969Z,14.80
2023-05-05T19:30:18.997Z,14.68
2023-05-05T19:32:51.477Z,14.67
2023-05-05T19:35:22.561Z,14.59
2023-05-05T19:37:52.755Z,14.50
2023-05-05T19:40:22.941Z,14.47
2023-05-05T19:42:53.142Z,14.39
2023-05-05T19:45:26.670Z,14.25
2023-05-05T19:47:56.973Z,14.24
2023-05-05T19:50:27.254Z,14.38
2023-05-05T19:52:57.977Z,14.33
2023-05-05T19:55:30.226Z,14.24
2023-05-05T19:58:00.352Z,14.32
2023-05-05T20:00:33.621Z,14.30
2023-05-05T20:03:04.121Z,14.14
2023-05-05T20:05:34.338Z,14.24
2023-05-05T20:08:04.507Z,14.13
2023-05-05T20:10:34.688Z,14.11
2023-05-05T20:13:05.056Z,14.05
2023-05-05T20:15:38.391Z,13.96
2023-05-05T20:18:08.770Z,13.91
2023-05-05T20:20:38.950Z,13.96
2023-05-05T20:23:14.358Z,13.85
2023-05-05T20:25:44.571Z,13.87
2023-05-05T20:28:14.735Z,13.88
2023-05-05T20:30:48.851Z,13.83
2023-05-05T20:33:19.231Z,13.71
2023-05-05T20:35:49.320Z,13.74
2023-05-05T20:38:19.456Z,13.59
2023-05-05T20:40:49.696Z,13.47
2023-05-05T20:43:20.065Z,13.50
2023-05-05T20:45:53.372Z,13.49
2023-05-05T20:48:23.575Z,13.49
2023-05-05T20:50:54.173Z,13.41
2023-05-05T20:53:25.643Z,13.45
2023-05-05T20:55:55.848Z,13.44
2023-05-05T20:58:26.110Z,13.42
2023-05-05T21:00:59.301Z,13.26
2023-05-05T21:03:29.629Z,13.06
2023-05-05T21:05:59.902Z,13.03
2023-05-05T21:08:30.046Z,13.04
2023-05-05T21:11:00.169Z,13.05
2023-05-05T21:13:32.253Z,13.06
2023-05-05T21:16:05.111Z,13.04
2023-05-05T21:18:35.226Z,13.03
2023-05-05T21:21:08.437Z,12.97
2023-05-05T21:23:38.544Z,12.92
2023-05-05T21:26:08.915Z,12.89
2023-05-05T21:28:39.178Z,12.92
2023-05-05T21:31:21.888Z,12.90
2023-05-05T21:33:52.533Z,12.84
2023-05-05T21:36:22.824Z,12.84
2023-05-05T21:38:55.682Z,12.72
2023-05-05T21:41:26.380Z,12.60
2023-05-05T21:43:56.564Z,12.51
2023-05-05T21:46:29.565Z,12.54
2023-05-05T21:48:59.717Z,12.42
2023-05-05T21:51:29.929Z,12.34
2023-05-05T21:54:00.068Z,12.30
2023-05-05T21:56:30.220Z,12.29
2023-05-05T21:59:00.306Z,12.27
2023-05-05T22:01:33.156Z,12.26
2023-05-05T22:04:03.390Z,12.32
2023-05-05T22:06:33.569Z,12.35
2023-05-05T22:09:03.739Z,12.36
2023-05-05T22:11:34.123Z,12.33
2023-05-05T22:14:04.266Z,12.30
2023-05-05T22:16:37.117Z,12.27
2023-05-05T22:19:07.278Z,12.26
2023-05-05T22:21:37.428Z,12.09
2023-05-05T22:24:08.611Z,11.97
2023-05-05T22:26:40.102Z,11.90
2023-05-05T22:29:10.285Z,11.90
2023-05-05T22:31:43.088Z,11.90
2023-05-05T22:34:14.127Z,11.82
2023-05-05T22:36:44.202Z,11.91
2023-05-05T22:39:14.419Z,11.92
2023-05-05T22:41:44.582Z,11.88
2023-05-05T22:44:14.945Z,11.85
2023-05-05T22:46:47.718Z,11.76
2023-05-05T22:49:18.064Z,11.72
2023-05-05T22:51:48.229Z,11.75
2023-05-05T22:54:18.367Z,11.63
2023-05-05T22:56:48.904Z,11.61
2023-05-05T22:59:18.993Z,11.66
2023-05-05T23:01:51.759Z,11.64
2023-05-05T23:04:22.023Z,11.65
2023-05-05T23:06:52.209Z,11.63
2023-05-05T23:09:22.341Z,11.56
2023-05-05T23:11:52.457Z,11.54
2023-05-05T23:14:22.666Z,11.48
2023-05-05T23:16:55.394Z,11.40
2023-05-05T23:19:25.496Z,11.47
2023-05-05T23:21:55.901Z,11.46
2023-05-05T23:24:26.038Z,11.42
2023-05-05T23:26:56.894Z,11.41
2023-05-05T23:29:26.992Z,11.40
2023-05-05T23:32:00.194Z,11.43
2023-05-05T23:34:30.471Z,11.39
2023-05-05T23:37:00.646Z,11.28
2023-05-05T23:39:31.419Z,11.24
2023-05-05T23:42:01.552Z,11.19
2023-05-05T23:44:31.710Z,11.12
2023-05-05T23:47:04.456Z,11.15
2023-05-05T23:49:34.597Z,11.17
2023-05-05T23:52:07.010Z,11.13
2023-05-05T23:54:40.624Z,11.03
2023-05-05T23:57:10.409Z,11.02
2023-05-05T23:59:42.449Z,10.98
